Airfield :
LOGIN :

Register | Disclaimer

   EN    FR    IT 

 










Legend :    VFR   Marginal VFR   IFR   Intensive IFR   Very Intensive IFR
Visi :
Ceiling :
>= 8 km
>= 3000ft
5 to 8 km
1000 to 3000 ft
1500m to 5 km
500 to 1000 ft
800 to 1500m
200 to 500 ft
< 800m
< 200 ft
Symbols :   Thunderstorms  Fog  Heavy snow  Heavy precipitations  Wind > 20 kt
SIGMETs :     Misc.  Thunderstorms  Icing  Turbulence  Mountain Waves  Volcanic Ashes







- Airport Elevation : 1300 ft
- IATA code : LIG
- Download approach charts


LFBL - Limoges

CURRENT METAR :
  • 192000Z AUTO 19007KT 9999 BKN035 OVC041 14/13 Q1012

EXPIRED METARs :
  • 191930Z AUTO 18007KT 9999 OVC034 14/13 Q1012
  • 191900Z AUTO 19008KT 9999 OVC037 14/13 Q1012
  • 191830Z AUTO 18008KT 9999 OVC036 15/13 Q1012
  • 191800Z AUTO 19006KT 9999 BKN037 14/12 Q1012
  • 191730Z AUTO 20009KT 9999 OVC036 15/12 Q1012

Expired Forecast.
ATIS : +33 5 55 48 40 37
No reported NOTAMs for that airfield.
2 SIGMETs reported for the Bordeaux FIR (LFBB) :
 
Severe turbulence
LFBB SIGMET 9 VALID 191800/192200 LFPW
LFBB BORDEAUX FIR/UIR SEV TURB FCST SW OF LINE N4245 E00015 - N4545 W00145 FL220/310 MOV E 30KT WKN=
Embedded thunderstorms
LFBB SIGMET 10 VALID 191900/192100 LFPW
LFBB BORDEAUX FIR/UIR EMBD TS OBS S OF N4345 AND E OF E00215 TOP FL370 STNR NC=



MET'MAP, your aeronautical weather chart ! - Copyright ORBIFLY December 2007 - Disclaimer

ORBIFLY MET'MAP TEAM :

Programming & Development : Alexandra Zaïnal
Concept & Development : Baudouin d'Aumeries
Co-Development & Prog : Marc-Olivier Méhu
Technical & hardware support : Manuel Goepfert

Contact : metmap@orbifly.com




SOURCES & CREDITS :

   NOAA